x

La Perouse Bank (46206) Wave Buoy

4:00 - Sun 19th Feb 2017 All times are PST. -8 hours from GMT.

  • Sig Wave height 6.2ft
  • Peak Period 18s
  • Wind
    9mph, 11mph gusts
  • Sea Temp 51°f
  • Sea Pressure 995.9mb
  • La Perouse Bank
  • La Perouse Bank

More Historic Weather Station data

Upgrade to MSW Pro to gain access to the past 30 days of data for over 8000 Wavebouys and Weather Stations around the globe.

Join Pro

Comparision Forecast

View Surf forecast
   
So 02/19 4:00 6ft 18s 9 11 mph 995.9mb 51f -
3:00 5.5ft 18s 4 7 mph 995.6mb 53f -
2:00 5ft 10s 7 9 mph 995.1mb 52f -
1:00 5ft 11s 13 16 mph 994.9mb 51f -
12:00 4.5ft 10s 7 9 mph 994.8mb 51f -
11:00 5ft 10s 9 11 mph 994.7mb 52f -
10:00 5ft 11s 9 11 mph 994.3mb 52f -
9:00 5ft 11s 7 9 mph 994mb 51f -
8:00 5ft 10s 2 4 mph 993.8mb 52f -
7:00 4.5ft 11s 9 16 mph 993.8mb 51f -
6:00 5ft 12s 4 7 mph 993.7mb 51f -
5:00 5ft 11s 13 16 mph 993.3mb 51f -
4:00 5ft 12s 16 20 mph 993.2mb 51f 92f
3:00 5ft 11s 7 11 mph 993.5mb 53f 92f
2:00 5ft 11s 9 13 mph 993.8mb 51f -
1:00 5ft 12s 11 13 mph 993.9mb 53f -
12:00 5ft 10s 11 13 mph 994.2mb 52f -
Sa 02/18 11:00 5.5ft 11s 11 13 mph 994.5mb 53f -
10:00 6ft 11s 2 4 mph 994.6mb 55f -
9:00 6ft 10s 4 7 mph 994.5mb 54f -
8:00 6ft 11s 7 9 mph 994.2mb 51f -
7:00 6.5ft 11s 9 11 mph 994.2mb 53f -
6:00 7ft 11s 7 9 mph 994.3mb 51f -
5:00 7ft 12s 4 7 mph 994.7mb 53f -
4:00 7ft 11s 7
mph
994.9mb 53f -
3:00 6.5ft 11s 7 9 mph 995.1mb 53f -
2:00 7ft 11s 4 7 mph 995.2mb 54f -
1:00 6.5ft 13s 4 7 mph 995.9mb 53f -
12:00 6ft 13s 7 9 mph 996mb 53f 66f
11:00 6ft 11s 4 7 mph 996.5mb 51f 39f
10:00 6ft 12s 4
mph
996.8mb 50f -
9:00 6.5ft 11s 4
mph
996.9mb 50f 80f
8:00 6.5ft 11s 2 4 mph 997mb 51f 49f
7:00 7ft 12s 7 9 mph 997.2mb 50f 49f
6:00 6ft 12s 7 9 mph 997.7mb 49f 13f
5:00 7ft 12s 4 7 mph 998.5mb 51f 13f
4:00 7ft 10s 4 7 mph 998.6mb 51f 13f
3:00 7ft 12s 2 4 mph 998.9mb 52f 13f
2:00 7ft 11s 2 4 mph 999.3mb 51f 13f
1:00 7.5ft 10s 4 7 mph 999.5mb 53f 13f
12:00 7ft 12s 9 11 mph 1000.1mb 52f 13f
Fr 02/17 11:00 7ft 12s 9 11 mph 1000.7mb 51f 14f
10:00 7.5ft 11s 11 13 mph 1001.2mb 52f 14f
9:00 8ft 12s 16 18 mph 1001.6mb 51f 14f
8:00 7ft 12s 18 20 mph 1002.1mb 51f 14f
7:00 7.5ft 11s 18 20 mph 1002.7mb 52f 14f
6:00 8.5ft 11s 16 20 mph 1003.1mb 51f 23f
5:00 8ft 11s 16 18 mph 1003mb 51f 47f
4:00 7.5ft 10s 16 18 mph 1003.2mb 53f 47f
3:00 8ft 12s 13 16 mph 1004mb 51f 47f
2:00 9ft 12s 9 11 mph 1004.9mb 51f 46f
1:00 8ft 11s 4 7 mph 1005.8mb 51f 46f
12:00 8ft 11s 7 11 mph 1006.4mb 52f 46f
11:00 9ft 12s 7 9 mph 1007mb 52f 47f
10:00 9ft 10s 7 9 mph 1007.1mb 53f 46f
9:00 9ft 11s 7 9 mph 1007.3mb 52f 47f
8:00 9.5ft 10s 4 7 mph 1007.2mb 54f 46f
7:00 10ft 11s 2 7 mph 1006.9mb 52f 46f
6:00 9.5ft 11s 4 9 mph 1006.7mb 52f 46f
5:00 10ft 10s 4 7 mph 1006.5mb 52f 46f
4:00 10ft 12s 4 7 mph 1006.4mb 53f 46f
3:00 10.5ft 12s 4 7 mph 1006.4mb 52f 46f
2:00 10.5ft 14s 7 11 mph 1006.1mb 52f 46f
12:00 11ft 11s 9
mph
1005.7mb 53f 47f
Do 02/16 11:00 10ft 11s 13 16 mph 1005.2mb 52f 47f
10:00 11.5ft 11s 16 18 mph 1004.6mb 53f 47f
9:00 12ft 12s 9 11 mph 1004mb 56f 46f
8:00 12ft 11s 4 7 mph 1003.1mb 53f 47f
7:00 13ft 11s 7 9 mph 1002.4mb 54f 47f
6:00 14ft 12s 11 16 mph 1001.3mb 54f 46f
5:00 14.5ft 11s 9 11 mph 1000.6mb 56f 47f
4:00 14ft 11s 11 13 mph 1000.2mb 55f 47f
3:00 14.5ft 12s 9 13 mph 999.6mb 55f 48f
2:00 15ft 12s 11 13 mph 999mb 53f 48f
1:00 15ft 11s 11 16 mph 998mb 52f 46f
12:00 16ft 11s 13 18 mph 997.1mb 55f 48f
11:00 16.5ft 13s 13 18 mph 996.8mb 52f 48f
10:00 17ft 12s 16 20 mph 996.1mb 54f 48f
9:00 18.5ft 12s 18 22 mph 995.4mb 54f 48f
8:00 16.5ft 12s 16 20 mph 994.7mb 53f 48f
7:00 19ft 13s 20 25 mph 993.6mb 55f 48f
6:00 19.5ft 14s 22 29 mph 992.7mb 56f 48f
5:00 21.5ft 12s 22 29 mph 991.9mb 56f 48f
4:00 19.5ft 12s 25 31 mph 990.7mb 55f 48f
3:00 21ft 13s 25 34 mph 989.8mb 56f 48f
2:00 22.5ft 12s 27 34 mph 988.6mb 58f 48f